createdAt,value
2023-03-06T00:01:29.398Z,23.83
2023-03-06T00:06:34.414Z,21.63
2023-03-06T00:11:38.189Z,20.77
2023-03-06T00:16:41.997Z,21.70
2023-03-06T00:21:46.887Z,22.90
2023-03-06T00:26:50.989Z,18.60
2023-03-06T00:31:55.009Z,19.33
2023-03-06T00:36:59.880Z,18.00
2023-03-06T00:42:03.273Z,16.57
2023-03-06T00:47:07.249Z,14.80
2023-03-06T00:52:12.547Z,13.20
2023-03-06T00:57:16.258Z,12.77
2023-03-06T01:02:19.788Z,11.70
2023-03-06T01:07:27.324Z,12.70
2023-03-06T01:12:30.738Z,11.90
2023-03-06T01:17:34.270Z,11.13
2023-03-06T01:22:40.697Z,10.13
2023-03-06T01:27:44.472Z,9.00
2023-03-06T01:32:48.288Z,9.07
2023-03-06T01:37:53.107Z,8.67
2023-03-06T01:42:56.575Z,9.93
2023-03-06T01:48:00.119Z,8.57
2023-03-06T01:53:06.188Z,8.97
2023-03-06T01:58:14.039Z,9.03
2023-03-06T02:03:21.831Z,9.23
2023-03-06T02:08:28.263Z,9.00
2023-03-06T02:13:32.448Z,8.23
2023-03-06T02:18:36.937Z,9.17
2023-03-06T02:23:52.534Z,8.73
2023-03-06T02:28:59.372Z,8.90
2023-03-06T02:34:06.924Z,8.43
2023-03-06T02:39:10.316Z,9.17
2023-03-06T02:44:16.344Z,8.37
2023-03-06T02:49:19.741Z,8.07
2023-03-06T02:54:23.117Z,8.03
2023-03-06T02:59:28.269Z,7.97
2023-03-06T03:04:32.990Z,7.90
2023-03-06T03:09:37.852Z,7.97
2023-03-06T03:14:42.693Z,8.70
2023-03-06T03:19:46.282Z,6.97
2023-03-06T03:24:49.999Z,7.73
2023-03-06T03:29:55.292Z,7.90
2023-03-06T03:34:59.105Z,8.17
2023-03-06T03:40:05.246Z,7.77
2023-03-06T03:45:11.510Z,8.57
2023-03-06T03:50:15.348Z,7.63
2023-03-06T03:55:19.676Z,9.43
2023-03-06T04:00:24.996Z,8.53
2023-03-06T04:05:38.607Z,9.63
2023-03-06T04:10:44.326Z,8.40
2023-03-06T04:15:52.634Z,9.33
2023-03-06T04:20:57.883Z,8.37
2023-03-06T04:26:01.606Z,8.43
2023-03-06T04:31:07.128Z,8.07
2023-03-06T04:36:28.402Z,8.43
2023-03-06T04:41:35.784Z,7.93
2023-03-06T04:46:40.676Z,7.90
2023-03-06T04:51:44.079Z,8.23
2023-03-06T04:56:47.512Z,8.07
2023-03-06T05:01:52.413Z,8.73
2023-03-06T05:06:55.837Z,8.60
2023-03-06T05:11:59.550Z,8.53
2023-03-06T05:17:04.592Z,8.70
2023-03-06T05:22:08.481Z,8.20
2023-03-06T05:27:12.426Z,8.70
2023-03-06T05:32:17.611Z,8.00
2023-03-06T05:37:23.148Z,8.57
2023-03-06T05:42:28.630Z,8.10
2023-03-06T05:47:34.051Z,8.13
2023-03-06T05:52:37.560Z,8.03
2023-03-06T05:57:41.625Z,7.83
2023-03-06T06:02:46.945Z,7.70
2023-03-06T06:07:50.341Z,7.80
2023-03-06T06:12:53.979Z,8.33
2023-03-06T06:17:59.381Z,8.47
2023-03-06T06:23:03.337Z,8.00
2023-03-06T06:28:06.929Z,7.77
2023-03-06T06:33:11.633Z,7.23
2023-03-06T06:38:15.245Z,7.10
2023-03-06T06:43:18.631Z,6.70
2023-03-06T06:48:23.419Z,6.97
2023-03-06T06:53:28.292Z,6.17
2023-03-06T06:58:31.642Z,7.03
2023-03-06T07:03:36.524Z,6.83
2023-03-06T07:08:39.958Z,6.20
2023-03-06T07:13:43.521Z,6.33
2023-03-06T07:18:48.339Z,6.07
2023-03-06T07:23:51.940Z,5.97
2023-03-06T07:28:55.762Z,6.40
2023-03-06T07:34:01.910Z,5.70
2023-03-06T07:39:06.646Z,5.50
2023-03-06T07:44:10.067Z,6.90
2023-03-06T07:49:15.187Z,6.30
2023-03-06T07:54:18.849Z,6.53
2023-03-06T07:59:22.252Z,6.07
2023-03-06T08:04:29.013Z,6.30
2023-03-06T08:09:33.197Z,6.63
2023-03-06T08:14:37.109Z,5.80
2023-03-06T08:19:41.922Z,6.93
2023-03-06T08:24:45.467Z,6.27
2023-03-06T08:29:48.856Z,6.40
2023-03-06T08:34:54.005Z,6.60
2023-03-06T08:39:57.689Z,6.50
2023-03-06T08:45:01.151Z,6.13
2023-03-06T08:50:07.027Z,7.70
2023-03-06T08:55:11.108Z,6.70
2023-03-06T09:00:15.666Z,7.97
2023-03-06T09:05:20.904Z,7.80
2023-03-06T09:10:26.306Z,8.20
2023-03-06T09:15:29.710Z,7.43
2023-03-06T09:20:34.501Z,7.47
2023-03-06T09:25:37.970Z,7.33
2023-03-06T09:30:41.945Z,8.00
2023-03-06T09:35:50.977Z,8.20
2023-03-06T09:41:04.470Z,8.17
2023-03-06T09:46:14.657Z,8.63
2023-03-06T09:51:26.162Z,7.87
2023-03-06T09:56:34.335Z,8.17
2023-03-06T10:01:42.416Z,8.17
2023-03-06T10:06:51.838Z,8.23
2023-03-06T10:12:01.375Z,8.03
2023-03-06T10:17:05.359Z,7.73
2023-03-06T10:22:21.208Z,8.50
2023-03-06T10:27:37.375Z,8.27
2023-03-06T10:32:49.380Z,7.87
2023-03-06T10:38:02.122Z,8.93
2023-03-06T10:43:12.480Z,10.20
2023-03-06T10:48:21.082Z,9.10
2023-03-06T10:53:29.506Z,9.73
2023-03-06T10:58:34.140Z,9.77
2023-03-06T11:03:38.334Z,10.07
2023-03-06T11:08:45.203Z,8.20
2023-03-06T11:13:58.475Z,8.40
2023-03-06T11:19:05.427Z,8.87
2023-03-06T11:24:18.659Z,9.30
2023-03-06T11:29:38.805Z,10.13
2023-03-06T11:34:50.602Z,8.93
2023-03-06T11:40:04.804Z,9.33
2023-03-06T11:45:23.406Z,9.80
2023-03-06T11:50:35.150Z,10.07
2023-03-06T11:55:51.957Z,10.60
2023-03-06T12:01:04.676Z,10.67
2023-03-06T12:06:17.696Z,10.67
2023-03-06T12:11:27.228Z,11.27
2023-03-06T12:16:42.348Z,11.50
2023-03-06T12:21:59.683Z,11.87
2023-03-06T12:27:15.101Z,12.70
2023-03-06T12:32:29.512Z,12.67
2023-03-06T12:37:47.624Z,12.73
2023-03-06T12:43:19.891Z,13.13
2023-03-06T12:48:29.329Z,12.60
2023-03-06T12:53:35.697Z,12.90
2023-03-06T12:58:51.763Z,11.93
2023-03-06T13:04:05.155Z,12.97
2023-03-06T13:09:25.222Z,13.80
2023-03-06T13:14:42.261Z,13.07
2023-03-06T13:20:30.381Z,13.67
2023-03-06T13:25:49.395Z,13.43
2023-03-06T13:30:54.469Z,13.60
2023-03-06T13:35:59.100Z,13.53
2023-03-06T13:41:37.685Z,13.60
2023-03-06T13:46:42.604Z,13.57
2023-03-06T13:52:07.231Z,13.77
2023-03-06T13:57:39.243Z,13.83
2023-03-06T14:02:58.665Z,13.10
2023-03-06T14:08:11.275Z,12.90
2023-03-06T14:13:21.377Z,14.10
2023-03-06T14:18:31.215Z,13.87
2023-03-06T14:23:38.211Z,14.37
2023-03-06T14:28:41.693Z,13.87
2023-03-06T14:33:52.911Z,13.73
2023-03-06T14:38:59.449Z,13.87
2023-03-06T14:44:18.247Z,13.20
2023-03-06T14:49:25.415Z,13.73
2023-03-06T14:54:31.007Z,15.70
2023-03-06T14:59:41.607Z,14.00
2023-03-06T15:04:49.504Z,14.53
2023-03-06T15:09:55.195Z,14.73
2023-03-06T15:15:00.309Z,14.40
2023-03-06T15:20:08.200Z,13.83
2023-03-06T15:25:26.670Z,14.00
2023-03-06T15:30:32.509Z,15.17
2023-03-06T15:35:38.416Z,14.97
2023-03-06T15:40:42.237Z,13.30
2023-03-06T15:45:46.000Z,14.67
2023-03-06T15:50:51.115Z,11.60
2023-03-06T15:55:54.706Z,11.13
2023-03-06T16:00:58.264Z,12.97
2023-03-06T16:06:03.406Z,11.60
2023-03-06T16:11:06.789Z,12.30
2023-03-06T16:16:17.239Z,15.07
2023-03-06T16:21:22.011Z,20.37
2023-03-06T16:26:30.882Z,18.90
2023-03-06T16:31:34.309Z,15.47
2023-03-06T16:36:39.189Z,15.20
2023-03-06T16:41:43.035Z,15.93
2023-03-06T16:46:48.431Z,15.57
2023-03-06T16:51:54.752Z,17.07
2023-03-06T16:56:58.427Z,19.13
2023-03-06T17:02:02.301Z,17.50
2023-03-06T17:07:08.311Z,16.10
2023-03-06T17:12:11.996Z,21.67
2023-03-06T17:17:15.364Z,17.43
2023-03-06T17:22:21.660Z,20.00
2023-03-06T17:27:27.612Z,18.20
2023-03-06T17:32:32.348Z,17.47
2023-03-06T17:37:37.441Z,18.63
2023-03-06T17:42:41.201Z,19.10
2023-03-06T17:47:45.819Z,14.87
2023-03-06T17:52:52.138Z,13.03
2023-03-06T17:57:55.568Z,14.70
2023-03-06T18:02:59.112Z,16.03
2023-03-06T18:08:04.293Z,14.63
2023-03-06T18:13:09.080Z,22.30
2023-03-06T18:18:12.795Z,24.80
2023-03-06T18:23:17.970Z,23.60
2023-03-06T18:28:21.685Z,21.23
2023-03-06T18:33:27.741Z,22.47
2023-03-06T18:38:32.531Z,22.77
2023-03-06T18:43:37.604Z,19.00
2023-03-06T18:48:41.382Z,18.00
2023-03-06T18:53:46.412Z,15.57
2023-03-06T18:58:50.581Z,17.47
2023-03-06T19:03:54.255Z,19.93
2023-03-06T19:09:01.548Z,19.40
2023-03-06T19:14:05.552Z,15.07
2023-03-06T19:19:09.552Z,14.47
2023-03-06T19:24:14.824Z,13.67
2023-03-06T19:29:18.585Z,14.00
2023-03-06T19:34:23.534Z,12.37
2023-03-06T19:39:28.415Z,12.10
2023-03-06T19:44:31.789Z,12.20
2023-03-06T19:49:35.529Z,12.00
2023-03-06T19:54:40.506Z,11.70
2023-03-06T19:59:43.955Z,10.67
2023-03-06T20:04:47.918Z,12.13
2023-03-06T20:09:53.104Z,11.13
2023-03-06T20:14:56.502Z,11.63
2023-03-06T20:19:59.893Z,10.27
2023-03-06T20:25:04.921Z,10.77
2023-03-06T20:30:09.784Z,10.43
2023-03-06T20:35:13.566Z,10.47
2023-03-06T20:40:19.620Z,10.23
2023-03-06T20:45:24.159Z,10.03
2023-03-06T20:50:27.720Z,9.43
2023-03-06T20:55:32.560Z,9.83
2023-03-06T21:00:35.935Z,10.00
2023-03-06T21:05:39.329Z,10.90
2023-03-06T21:10:46.251Z,11.13
2023-03-06T21:15:49.917Z,10.00
2023-03-06T21:20:53.340Z,11.23
2023-03-06T21:25:58.553Z,10.63
2023-03-06T21:31:02.716Z,11.60
2023-03-06T21:36:06.793Z,11.70
2023-03-06T21:41:14.587Z,10.00
2023-03-06T21:46:18.027Z,11.00
2023-03-06T21:51:23.862Z,10.30
2023-03-06T21:56:31.075Z,10.07
2023-03-06T22:01:34.525Z,10.50
2023-03-06T22:06:39.982Z,10.40
2023-03-06T22:11:45.063Z,10.63
2023-03-06T22:16:48.795Z,9.73
2023-03-06T22:21:52.226Z,10.30
2023-03-06T22:26:56.976Z,9.60
2023-03-06T22:32:00.441Z,9.87
2023-03-06T22:37:04.248Z,9.93
2023-03-06T22:42:09.435Z,9.10
2023-03-06T22:47:12.857Z,9.23
2023-03-06T22:52:19.602Z,8.07
2023-03-06T22:57:24.497Z,7.43
2023-03-06T23:02:33.077Z,8.80
2023-03-06T23:07:36.785Z,8.60
2023-03-06T23:12:42.355Z,8.70
2023-03-06T23:18:04.642Z,8.60
2023-03-06T23:23:27.283Z,8.10
2023-03-06T23:28:32.084Z,8.60
2023-03-06T23:33:36.995Z,8.90
2023-03-06T23:38:40.981Z,7.63
2023-03-06T23:43:46.193Z,7.83
2023-03-06T23:48:49.603Z,7.90
2023-03-06T23:53:58.133Z,8.80
2023-03-06T23:59:02.895Z,7.93
